Terminal Aerodrome Forecast
Issued by NWS Cleveland, OH

Home | Current Version | Previous Version | Text Only | Print | Product List | Glossary Off
Versions: 1 2 3 4 5 6 7 8 9 10 11 12 13 14 15 16 17 18 19 20 21 22 23 24 25 26 27 28 29 30 31 32 33 34 35 36

681
FTUS41 KCLE 231951 AAB
TAFCLE
TAF AMD
KCLE 231951Z 2320/2424 23012G25KT P6SM VCSH SCT008 OVC010
      TEMPO 2320/2322 SCT010 BKN040
     FM232200 26006KT P6SM OVC010
     FM240800 33005KT 2SM BR OVC007
     FM241300 03005KT 3SM BR OVC007
     FM241600 05007KT 4SM -RA BR OVC007
     FM242300 09007KT 6SM RA OVC020=

USA.gov is the U.S. government's official web portal to all federal, state and local government web resources and services.